sensor_id;sensor_type;location;lat;lon;timestamp;P1;durP1;ratioP1;P2;durP2;ratioP2
5650;SDS011;40241;52.684;9.758;2023-02-22T00:00:11;13.27;;;8.90;;
5650;SDS011;40241;52.684;9.758;2023-02-22T00:02:48;12.97;;;8.10;;
5650;SDS011;40241;52.684;9.758;2023-02-22T00:05:15;14.77;;;8.63;;
5650;SDS011;40241;52.684;9.758;2023-02-22T00:07:44;13.43;;;8.80;;
5650;SDS011;40241;52.684;9.758;2023-02-22T00:10:10;14.47;;;8.93;;
5650;SDS011;40241;52.684;9.758;2023-02-22T00:12:41;12.77;;;8.40;;
5650;SDS011;40241;52.684;9.758;2023-02-22T00:15:07;15.20;;;9.30;;
5650;SDS011;40241;52.684;9.758;2023-02-22T00:17:33;13.97;;;8.80;;
5650;SDS011;40241;52.684;9.758;2023-02-22T00:19:59;16.90;;;9.00;;
5650;SDS011;40241;52.684;9.758;2023-02-22T00:22:24;13.50;;;9.13;;
5650;SDS011;40241;52.684;9.758;2023-02-22T00:24:49;15.17;;;9.27;;
5650;SDS011;40241;52.684;9.758;2023-02-22T00:27:15;17.00;;;9.47;;
5650;SDS011;40241;52.684;9.758;2023-02-22T00:29:44;12.70;;;8.50;;
5650;SDS011;40241;52.684;9.758;2023-02-22T00:32:10;15.83;;;9.00;;
5650;SDS011;40241;52.684;9.758;2023-02-22T00:34:36;14.20;;;8.40;;
5650;SDS011;40241;52.684;9.758;2023-02-22T00:37:01;14.07;;;8.80;;
5650;SDS011;40241;52.684;9.758;2023-02-22T00:39:28;16.97;;;8.80;;
5650;SDS011;40241;52.684;9.758;2023-02-22T00:41:54;17.43;;;9.63;;
5650;SDS011;40241;52.684;9.758;2023-02-22T00:44:19;14.57;;;8.70;;
5650;SDS011;40241;52.684;9.758;2023-02-22T00:46:45;12.93;;;8.27;;
5650;SDS011;40241;52.684;9.758;2023-02-22T00:49:10;13.20;;;8.50;;
5650;SDS011;40241;52.684;9.758;2023-02-22T00:51:35;14.80;;;9.50;;
5650;SDS011;40241;52.684;9.758;2023-02-22T00:54:01;17.40;;;9.37;;
5650;SDS011;40241;52.684;9.758;2023-02-22T00:56:26;16.27;;;9.50;;
5650;SDS011;40241;52.684;9.758;2023-02-22T00:58:52;16.03;;;9.67;;
5650;SDS011;40241;52.684;9.758;2023-02-22T01:01:17;17.53;;;10.10;;
5650;SDS011;40241;52.684;9.758;2023-02-22T01:03:43;13.70;;;8.90;;
5650;SDS011;40241;52.684;9.758;2023-02-22T01:06:08;13.53;;;8.17;;
5650;SDS011;40241;52.684;9.758;2023-02-22T01:08:34;15.80;;;8.30;;
5650;SDS011;40241;52.684;9.758;2023-02-22T01:10:59;19.40;;;9.83;;
5650;SDS011;40241;52.684;9.758;2023-02-22T01:13:24;15.53;;;9.40;;
5650;SDS011;40241;52.684;9.758;2023-02-22T01:15:50;14.67;;;9.20;;
5650;SDS011;40241;52.684;9.758;2023-02-22T01:18:15;13.67;;;9.07;;
5650;SDS011;40241;52.684;9.758;2023-02-22T01:20:41;14.07;;;8.30;;
5650;SDS011;40241;52.684;9.758;2023-02-22T01:23:12;12.90;;;7.97;;
5650;SDS011;40241;52.684;9.758;2023-02-22T01:25:37;13.00;;;8.47;;
5650;SDS011;40241;52.684;9.758;2023-02-22T01:28:04;17.90;;;8.80;;
5650;SDS011;40241;52.684;9.758;2023-02-22T01:30:31;14.73;;;8.37;;
5650;SDS011;40241;52.684;9.758;2023-02-22T01:32:58;12.07;;;7.70;;
5650;SDS011;40241;52.684;9.758;2023-02-22T01:35:26;12.70;;;7.50;;
5650;SDS011;40241;52.684;9.758;2023-02-22T01:37:53;13.07;;;7.90;;
5650;SDS011;40241;52.684;9.758;2023-02-22T01:40:21;16.50;;;7.90;;
5650;SDS011;40241;52.684;9.758;2023-02-22T01:42:52;11.90;;;7.13;;
5650;SDS011;40241;52.684;9.758;2023-02-22T01:45:37;13.77;;;8.00;;
5650;SDS011;40241;52.684;9.758;2023-02-22T01:51:28;14.40;;;7.97;;
5650;SDS011;40241;52.684;9.758;2023-02-22T01:53:36;12.60;;;7.57;;
5650;SDS011;40241;52.684;9.758;2023-02-22T01:56:07;13.17;;;8.03;;
5650;SDS011;40241;52.684;9.758;2023-02-22T01:58:34;18.33;;;8.77;;
5650;SDS011;40241;52.684;9.758;2023-02-22T02:01:03;14.23;;;7.77;;
5650;SDS011;40241;52.684;9.758;2023-02-22T02:03:31;11.67;;;8.03;;
5650;SDS011;40241;52.684;9.758;2023-02-22T02:06:00;11.40;;;7.60;;
5650;SDS011;40241;52.684;9.758;2023-02-22T02:08:35;13.10;;;7.67;;
5650;SDS011;40241;52.684;9.758;2023-02-22T02:11:23;15.30;;;7.80;;
5650;SDS011;40241;52.684;9.758;2023-02-22T02:13:53;14.57;;;7.97;;
5650;SDS011;40241;52.684;9.758;2023-02-22T02:16:20;17.40;;;8.87;;
5650;SDS011;40241;52.684;9.758;2023-02-22T02:18:47;15.30;;;9.17;;
5650;SDS011;40241;52.684;9.758;2023-02-22T02:32:34;15.40;;;8.70;;
5650;SDS011;40241;52.684;9.758;2023-02-22T02:35:20;16.43;;;8.20;;
5650;SDS011;40241;52.684;9.758;2023-02-22T02:41:02;15.50;;;8.50;;
5650;SDS011;40241;52.684;9.758;2023-02-22T02:46:49;16.20;;;7.87;;
5650;SDS011;40241;52.684;9.758;2023-02-22T02:49:21;14.00;;;7.80;;
5650;SDS011;40241;52.684;9.758;2023-02-22T02:51:52;11.00;;;7.13;;
5650;SDS011;40241;52.684;9.758;2023-02-22T02:54:20;15.20;;;8.30;;
5650;SDS011;40241;52.684;9.758;2023-02-22T02:56:47;17.50;;;8.83;;
5650;SDS011;40241;52.684;9.758;2023-02-22T03:07:54;14.63;;;8.20;;
5650;SDS011;40241;52.684;9.758;2023-02-22T03:16:04;14.93;;;8.60;;
5650;SDS011;40241;52.684;9.758;2023-02-22T03:18:47;17.03;;;8.70;;
5650;SDS011;40241;52.684;9.758;2023-02-22T03:27:02;17.73;;;8.70;;
5650;SDS011;40241;52.684;9.758;2023-02-22T03:29:37;16.03;;;8.40;;
5650;SDS011;40241;52.684;9.758;2023-02-22T03:32:08;17.97;;;10.10;;
5650;SDS011;40241;52.684;9.758;2023-02-22T03:34:42;16.27;;;8.57;;
5650;SDS011;40241;52.684;9.758;2023-02-22T03:37:16;25.07;;;9.77;;
5650;SDS011;40241;52.684;9.758;2023-02-22T03:39:46;20.10;;;8.60;;
5650;SDS011;40241;52.684;9.758;2023-02-22T03:42:19;16.10;;;8.60;;
5650;SDS011;40241;52.684;9.758;2023-02-22T03:44:49;19.47;;;8.80;;
5650;SDS011;40241;52.684;9.758;2023-02-22T03:47:17;15.90;;;8.57;;
5650;SDS011;40241;52.684;9.758;2023-02-22T03:49:56;16.90;;;8.07;;
5650;SDS011;40241;52.684;9.758;2023-02-22T03:52:31;19.00;;;8.27;;
5650;SDS011;40241;52.684;9.758;2023-02-22T03:54:59;20.10;;;9.10;;
5650;SDS011;40241;52.684;9.758;2023-02-22T03:57:25;18.17;;;9.07;;
5650;SDS011;40241;52.684;9.758;2023-02-22T03:59:53;17.23;;;8.53;;
5650;SDS011;40241;52.684;9.758;2023-02-22T04:02:19;17.00;;;8.60;;
5650;SDS011;40241;52.684;9.758;2023-02-22T04:04:45;16.50;;;8.30;;
5650;SDS011;40241;52.684;9.758;2023-02-22T04:07:11;22.00;;;10.20;;
5650;SDS011;40241;52.684;9.758;2023-02-22T04:09:37;20.80;;;8.80;;
5650;SDS011;40241;52.684;9.758;2023-02-22T04:12:02;17.20;;;8.63;;
5650;SDS011;40241;52.684;9.758;2023-02-22T04:14:28;23.90;;;9.33;;
5650;SDS011;40241;52.684;9.758;2023-02-22T04:16:54;16.27;;;8.60;;
5650;SDS011;40241;52.684;9.758;2023-02-22T04:19:19;18.23;;;9.03;;
5650;SDS011;40241;52.684;9.758;2023-02-22T04:21:45;17.13;;;8.30;;
5650;SDS011;40241;52.684;9.758;2023-02-22T04:24:10;20.17;;;9.73;;
5650;SDS011;40241;52.684;9.758;2023-02-22T04:26:35;21.60;;;9.80;;
5650;SDS011;40241;52.684;9.758;2023-02-22T04:29:01;20.30;;;10.07;;
5650;SDS011;40241;52.684;9.758;2023-02-22T04:31:28;14.27;;;7.67;;
5650;SDS011;40241;52.684;9.758;2023-02-22T04:33:54;19.83;;;9.53;;
5650;SDS011;40241;52.684;9.758;2023-02-22T04:36:19;22.17;;;9.17;;
5650;SDS011;40241;52.684;9.758;2023-02-22T04:38:45;21.20;;;9.50;;
5650;SDS011;40241;52.684;9.758;2023-02-22T04:41:11;22.50;;;9.60;;
5650;SDS011;40241;52.684;9.758;2023-02-22T04:43:36;21.70;;;9.57;;
5650;SDS011;40241;52.684;9.758;2023-02-22T04:46:01;21.50;;;9.50;;
5650;SDS011;40241;52.684;9.758;2023-02-22T04:48:28;22.87;;;10.40;;
5650;SDS011;40241;52.684;9.758;2023-02-22T04:50:53;22.63;;;10.13;;
5650;SDS011;40241;52.684;9.758;2023-02-22T04:53:19;19.33;;;8.47;;
5650;SDS011;40241;52.684;9.758;2023-02-22T04:55:44;23.63;;;9.53;;
5650;SDS011;40241;52.684;9.758;2023-02-22T04:58:09;16.67;;;8.53;;
5650;SDS011;40241;52.684;9.758;2023-02-22T05:00:35;22.90;;;9.07;;
5650;SDS011;40241;52.684;9.758;2023-02-22T05:03:00;20.40;;;8.90;;
5650;SDS011;40241;52.684;9.758;2023-02-22T05:05:26;25.13;;;9.70;;
5650;SDS011;40241;52.684;9.758;2023-02-22T05:07:51;17.27;;;8.43;;
5650;SDS011;40241;52.684;9.758;2023-02-22T05:10:17;17.70;;;8.13;;
5650;SDS011;40241;52.684;9.758;2023-02-22T05:12:43;24.23;;;8.83;;
5650;SDS011;40241;52.684;9.758;2023-02-22T05:15:08;22.80;;;9.73;;
5650;SDS011;40241;52.684;9.758;2023-02-22T05:17:35;21.50;;;9.37;;
5650;SDS011;40241;52.684;9.758;2023-02-22T05:20:01;19.03;;;9.30;;
5650;SDS011;40241;52.684;9.758;2023-02-22T05:22:28;20.17;;;9.40;;
5650;SDS011;40241;52.684;9.758;2023-02-22T05:24:53;26.50;;;9.37;;
5650;SDS011;40241;52.684;9.758;2023-02-22T05:27:20;22.40;;;8.97;;
5650;SDS011;40241;52.684;9.758;2023-02-22T05:29:46;20.33;;;8.97;;
5650;SDS011;40241;52.684;9.758;2023-02-22T05:32:11;23.37;;;8.17;;
5650;SDS011;40241;52.684;9.758;2023-02-22T05:34:37;22.40;;;9.17;;
5650;SDS011;40241;52.684;9.758;2023-02-22T05:37:02;24.30;;;9.57;;
5650;SDS011;40241;52.684;9.758;2023-02-22T05:39:29;24.23;;;9.70;;
5650;SDS011;40241;52.684;9.758;2023-02-22T05:41:54;18.90;;;8.43;;
5650;SDS011;40241;52.684;9.758;2023-02-22T05:44:20;27.50;;;8.30;;
5650;SDS011;40241;52.684;9.758;2023-02-22T05:46:45;26.10;;;9.27;;
5650;SDS011;40241;52.684;9.758;2023-02-22T05:49:10;16.60;;;7.70;;
5650;SDS011;40241;52.684;9.758;2023-02-22T05:51:36;21.47;;;9.53;;
5650;SDS011;40241;52.684;9.758;2023-02-22T05:54:01;26.10;;;9.57;;
5650;SDS011;40241;52.684;9.758;2023-02-22T05:56:27;20.23;;;9.07;;
5650;SDS011;40241;52.684;9.758;2023-02-22T05:58:54;22.27;;;8.60;;
5650;SDS011;40241;52.684;9.758;2023-02-22T06:01:20;20.67;;;7.63;;
5650;SDS011;40241;52.684;9.758;2023-02-22T06:03:46;18.50;;;7.00;;
5650;SDS011;40241;52.684;9.758;2023-02-22T06:06:14;25.60;;;7.93;;
5650;SDS011;40241;52.684;9.758;2023-02-22T06:08:40;26.87;;;8.63;;
5650;SDS011;40241;52.684;9.758;2023-02-22T06:11:05;20.50;;;9.23;;
5650;SDS011;40241;52.684;9.758;2023-02-22T06:13:30;27.20;;;9.23;;
5650;SDS011;40241;52.684;9.758;2023-02-22T06:15:56;25.03;;;8.70;;
5650;SDS011;40241;52.684;9.758;2023-02-22T06:18:21;21.13;;;8.03;;
5650;SDS011;40241;52.684;9.758;2023-02-22T06:20:50;19.40;;;8.40;;
5650;SDS011;40241;52.684;9.758;2023-02-22T06:23:15;24.23;;;9.10;;
5650;SDS011;40241;52.684;9.758;2023-02-22T06:25:41;29.20;;;8.40;;
5650;SDS011;40241;52.684;9.758;2023-02-22T06:28:06;22.40;;;9.20;;
5650;SDS011;40241;52.684;9.758;2023-02-22T06:30:32;20.23;;;8.80;;
5650;SDS011;40241;52.684;9.758;2023-02-22T06:32:57;23.73;;;9.60;;
5650;SDS011;40241;52.684;9.758;2023-02-22T06:35:22;23.67;;;8.93;;
5650;SDS011;40241;52.684;9.758;2023-02-22T06:37:48;18.70;;;8.47;;
5650;SDS011;40241;52.684;9.758;2023-02-22T06:40:13;23.63;;;8.33;;
5650;SDS011;40241;52.684;9.758;2023-02-22T06:42:39;22.50;;;8.80;;
5650;SDS011;40241;52.684;9.758;2023-02-22T06:45:05;31.83;;;10.30;;
5650;SDS011;40241;52.684;9.758;2023-02-22T06:47:31;28.17;;;9.30;;
5650;SDS011;40241;52.684;9.758;2023-02-22T06:49:57;22.13;;;9.40;;
5650;SDS011;40241;52.684;9.758;2023-02-22T06:52:23;26.00;;;10.70;;
5650;SDS011;40241;52.684;9.758;2023-02-22T06:54:49;23.50;;;9.50;;
5650;SDS011;40241;52.684;9.758;2023-02-22T06:57:15;23.90;;;9.03;;
5650;SDS011;40241;52.684;9.758;2023-02-22T06:59:41;26.87;;;9.37;;
5650;SDS011;40241;52.684;9.758;2023-02-22T07:02:08;25.87;;;9.00;;
5650;SDS011;40241;52.684;9.758;2023-02-22T07:04:35;22.10;;;8.20;;
5650;SDS011;40241;52.684;9.758;2023-02-22T07:07:00;22.53;;;8.43;;
5650;SDS011;40241;52.684;9.758;2023-02-22T07:09:25;22.57;;;9.40;;
5650;SDS011;40241;52.684;9.758;2023-02-22T07:11:51;21.70;;;8.40;;
5650;SDS011;40241;52.684;9.758;2023-02-22T07:14:16;23.07;;;9.33;;
5650;SDS011;40241;52.684;9.758;2023-02-22T07:16:41;22.03;;;9.37;;
5650;SDS011;40241;52.684;9.758;2023-02-22T07:19:07;24.37;;;9.70;;
5650;SDS011;40241;52.684;9.758;2023-02-22T07:21:32;23.47;;;9.40;;
5650;SDS011;40241;52.684;9.758;2023-02-22T07:23:57;18.90;;;9.10;;
5650;SDS011;40241;52.684;9.758;2023-02-22T07:26:23;27.37;;;9.00;;
5650;SDS011;40241;52.684;9.758;2023-02-22T07:28:49;24.27;;;9.80;;
5650;SDS011;40241;52.684;9.758;2023-02-22T07:31:15;30.83;;;11.57;;
5650;SDS011;40241;52.684;9.758;2023-02-22T07:33:40;28.27;;;10.30;;
5650;SDS011;40241;52.684;9.758;2023-02-22T07:36:06;23.13;;;9.93;;
5650;SDS011;40241;52.684;9.758;2023-02-22T07:38:32;32.33;;;10.70;;
5650;SDS011;40241;52.684;9.758;2023-02-22T07:40:57;26.53;;;10.10;;
5650;SDS011;40241;52.684;9.758;2023-02-22T07:45:51;23.07;;;10.20;;
5650;SDS011;40241;52.684;9.758;2023-02-22T07:48:18;25.60;;;10.27;;
5650;SDS011;40241;52.684;9.758;2023-02-22T07:50:45;26.40;;;10.97;;
5650;SDS011;40241;52.684;9.758;2023-02-22T07:53:11;23.30;;;9.97;;
5650;SDS011;40241;52.684;9.758;2023-02-22T07:55:38;25.57;;;10.00;;
5650;SDS011;40241;52.684;9.758;2023-02-22T07:58:05;26.40;;;9.27;;
5650;SDS011;40241;52.684;9.758;2023-02-22T08:00:33;27.90;;;9.90;;
5650;SDS011;40241;52.684;9.758;2023-02-22T08:03:04;26.83;;;8.90;;
5650;SDS011;40241;52.684;9.758;2023-02-22T08:05:32;26.87;;;10.50;;
5650;SDS011;40241;52.684;9.758;2023-02-22T08:07:59;28.97;;;10.50;;
5650;SDS011;40241;52.684;9.758;2023-02-22T08:10:25;27.37;;;10.90;;
5650;SDS011;40241;52.684;9.758;2023-02-22T08:12:51;25.97;;;9.50;;
5650;SDS011;40241;52.684;9.758;2023-02-22T08:15:30;25.40;;;9.50;;
5650;SDS011;40241;52.684;9.758;2023-02-22T08:17:58;26.83;;;9.83;;
5650;SDS011;40241;52.684;9.758;2023-02-22T08:20:25;21.67;;;9.40;;
5650;SDS011;40241;52.684;9.758;2023-02-22T08:22:51;26.23;;;9.40;;
5650;SDS011;40241;52.684;9.758;2023-02-22T08:25:17;23.73;;;8.83;;
5650;SDS011;40241;52.684;9.758;2023-02-22T08:27:44;21.37;;;9.77;;
5650;SDS011;40241;52.684;9.758;2023-02-22T08:30:14;18.20;;;8.70;;
5650;SDS011;40241;52.684;9.758;2023-02-22T08:32:46;23.77;;;9.23;;
5650;SDS011;40241;52.684;9.758;2023-02-22T08:35:13;21.87;;;9.10;;
5650;SDS011;40241;52.684;9.758;2023-02-22T08:37:43;19.40;;;8.83;;
5650;SDS011;40241;52.684;9.758;2023-02-22T08:40:10;16.90;;;8.60;;
5650;SDS011;40241;52.684;9.758;2023-02-22T08:42:37;18.33;;;8.70;;
5650;SDS011;40241;52.684;9.758;2023-02-22T08:45:02;16.43;;;7.63;;
5650;SDS011;40241;52.684;9.758;2023-02-22T08:47:28;23.40;;;9.83;;
5650;SDS011;40241;52.684;9.758;2023-02-22T08:49:53;18.27;;;8.20;;
5650;SDS011;40241;52.684;9.758;2023-02-22T08:52:20;18.27;;;7.33;;
5650;SDS011;40241;52.684;9.758;2023-02-22T08:54:45;18.90;;;8.13;;
5650;SDS011;40241;52.684;9.758;2023-02-22T08:57:11;17.93;;;7.70;;
5650;SDS011;40241;52.684;9.758;2023-02-22T08:59:37;16.43;;;7.97;;
5650;SDS011;40241;52.684;9.758;2023-02-22T09:02:02;14.40;;;7.40;;
5650;SDS011;40241;52.684;9.758;2023-02-22T09:04:28;16.10;;;8.10;;
5650;SDS011;40241;52.684;9.758;2023-02-22T09:06:53;13.40;;;7.17;;
5650;SDS011;40241;52.684;9.758;2023-02-22T09:09:19;11.50;;;6.80;;
5650;SDS011;40241;52.684;9.758;2023-02-22T09:11:45;15.90;;;8.10;;
5650;SDS011;40241;52.684;9.758;2023-02-22T09:14:13;16.00;;;7.37;;
5650;SDS011;40241;52.684;9.758;2023-02-22T09:16:40;14.53;;;7.10;;
5650;SDS011;40241;52.684;9.758;2023-02-22T09:19:07;16.67;;;7.47;;
5650;SDS011;40241;52.684;9.758;2023-02-22T09:21:32;11.93;;;6.50;;
5650;SDS011;40241;52.684;9.758;2023-02-22T09:23:57;17.57;;;7.93;;
5650;SDS011;40241;52.684;9.758;2023-02-22T09:26:25;14.93;;;7.17;;
5650;SDS011;40241;52.684;9.758;2023-02-22T09:28:51;14.17;;;6.60;;
5650;SDS011;40241;52.684;9.758;2023-02-22T09:31:17;13.17;;;7.73;;
5650;SDS011;40241;52.684;9.758;2023-02-22T09:33:42;15.87;;;8.17;;
5650;SDS011;40241;52.684;9.758;2023-02-22T09:36:08;12.03;;;6.73;;
5650;SDS011;40241;52.684;9.758;2023-02-22T09:38:34;13.23;;;7.97;;
5650;SDS011;40241;52.684;9.758;2023-02-22T09:41:17;14.00;;;6.97;;
5650;SDS011;40241;52.684;9.758;2023-02-22T09:44:00;12.10;;;6.87;;
5650;SDS011;40241;52.684;9.758;2023-02-22T09:46:46;10.03;;;6.13;;
5650;SDS011;40241;52.684;9.758;2023-02-22T09:49:23;13.97;;;7.90;;
5650;SDS011;40241;52.684;9.758;2023-02-22T09:57:03;12.53;;;7.70;;
5650;SDS011;40241;52.684;9.758;2023-02-22T09:59:42;11.10;;;7.13;;
5650;SDS011;40241;52.684;9.758;2023-02-22T10:02:28;10.80;;;7.40;;
5650;SDS011;40241;52.684;9.758;2023-02-22T10:05:03;10.47;;;6.67;;
5650;SDS011;40241;52.684;9.758;2023-02-22T10:07:44;15.67;;;7.80;;
5650;SDS011;40241;52.684;9.758;2023-02-22T10:10:16;13.83;;;8.00;;
5650;SDS011;40241;52.684;9.758;2023-02-22T10:12:50;12.77;;;7.53;;
5650;SDS011;40241;52.684;9.758;2023-02-22T10:18:31;11.27;;;7.20;;
5650;SDS011;40241;52.684;9.758;2023-02-22T10:26:48;10.07;;;5.90;;
5650;SDS011;40241;52.684;9.758;2023-02-22T10:31:50;10.03;;;6.57;;
5650;SDS011;40241;52.684;9.758;2023-02-22T10:34:22;12.40;;;7.00;;
5650;SDS011;40241;52.684;9.758;2023-02-22T10:36:52;12.57;;;7.60;;
5650;SDS011;40241;52.684;9.758;2023-02-22T10:39:26;10.10;;;6.50;;
5650;SDS011;40241;52.684;9.758;2023-02-22T10:41:55;13.57;;;8.33;;
5650;SDS011;40241;52.684;9.758;2023-02-22T10:44:22;12.80;;;7.60;;
5650;SDS011;40241;52.684;9.758;2023-02-22T10:46:48;8.93;;;6.77;;
5650;SDS011;40241;52.684;9.758;2023-02-22T10:49:17;10.60;;;7.50;;
5650;SDS011;40241;52.684;9.758;2023-02-22T10:51:47;11.73;;;7.10;;
5650;SDS011;40241;52.684;9.758;2023-02-22T10:54:29;9.67;;;6.60;;
5650;SDS011;40241;52.684;9.758;2023-02-22T10:57:00;12.73;;;7.83;;
5650;SDS011;40241;52.684;9.758;2023-02-22T10:59:29;11.80;;;7.03;;
5650;SDS011;40241;52.684;9.758;2023-02-22T11:02:00;12.77;;;7.70;;
5650;SDS011;40241;52.684;9.758;2023-02-22T11:07:32;11.43;;;6.00;;
5650;SDS011;40241;52.684;9.758;2023-02-22T11:10:03;12.57;;;7.37;;
5650;SDS011;40241;52.684;9.758;2023-02-22T11:12:32;12.47;;;7.77;;
5650;SDS011;40241;52.684;9.758;2023-02-22T11:15:22;11.30;;;7.13;;
5650;SDS011;40241;52.684;9.758;2023-02-22T11:17:52;9.97;;;7.00;;
5650;SDS011;40241;52.684;9.758;2023-02-22T11:20:22;9.60;;;6.70;;
5650;SDS011;40241;52.684;9.758;2023-02-22T11:22:53;8.90;;;5.80;;
5650;SDS011;40241;52.684;9.758;2023-02-22T11:25:23;9.73;;;6.90;;
5650;SDS011;40241;52.684;9.758;2023-02-22T11:27:51;13.27;;;7.63;;
5650;SDS011;40241;52.684;9.758;2023-02-22T11:32:53;9.97;;;7.00;;
5650;SDS011;40241;52.684;9.758;2023-02-22T11:35:48;10.20;;;7.40;;
5650;SDS011;40241;52.684;9.758;2023-02-22T11:38:22;11.43;;;7.60;;
5650;SDS011;40241;52.684;9.758;2023-02-22T11:43:54;10.07;;;6.87;;
5650;SDS011;40241;52.684;9.758;2023-02-22T11:46:47;7.97;;;5.87;;
5650;SDS011;40241;52.684;9.758;2023-02-22T11:49:13;8.83;;;6.07;;
5650;SDS011;40241;52.684;9.758;2023-02-22T11:54:11;10.63;;;6.00;;
5650;SDS011;40241;52.684;9.758;2023-02-22T12:05:44;7.50;;;5.57;;
5650;SDS011;40241;52.684;9.758;2023-02-22T12:08:45;6.50;;;5.47;;
5650;SDS011;40241;52.684;9.758;2023-02-22T12:11:31;6.77;;;5.50;;
5650;SDS011;40241;52.684;9.758;2023-02-22T12:16:35;7.57;;;5.07;;
5650;SDS011;40241;52.684;9.758;2023-02-22T12:22:00;7.57;;;4.33;;
5650;SDS011;40241;52.684;9.758;2023-02-22T12:24:42;5.80;;;4.87;;
5650;SDS011;40241;52.684;9.758;2023-02-22T12:27:17;8.70;;;5.40;;
5650;SDS011;40241;52.684;9.758;2023-02-22T12:29:55;8.13;;;5.27;;
5650;SDS011;40241;52.684;9.758;2023-02-22T12:33:08;5.60;;;4.50;;
5650;SDS011;40241;52.684;9.758;2023-02-22T12:46:35;8.23;;;4.87;;
5650;SDS011;40241;52.684;9.758;2023-02-22T12:49:10;8.23;;;5.20;;
5650;SDS011;40241;52.684;9.758;2023-02-22T12:51:44;6.93;;;4.70;;
5650;SDS011;40241;52.684;9.758;2023-02-22T12:59:33;5.30;;;4.20;;
5650;SDS011;40241;52.684;9.758;2023-02-22T13:02:19;6.20;;;5.10;;
5650;SDS011;40241;52.684;9.758;2023-02-22T13:04:51;8.10;;;5.57;;
5650;SDS011;40241;52.684;9.758;2023-02-22T13:09:54;5.73;;;4.93;;
5650;SDS011;40241;52.684;9.758;2023-02-22T13:12:38;7.80;;;5.57;;
5650;SDS011;40241;52.684;9.758;2023-02-22T13:18:02;6.80;;;6.00;;
5650;SDS011;40241;52.684;9.758;2023-02-22T13:20:30;7.20;;;5.30;;
5650;SDS011;40241;52.684;9.758;2023-02-22T13:44:31;8.87;;;6.70;;
5650;SDS011;40241;52.684;9.758;2023-02-22T13:47:51;8.37;;;5.80;;
5650;SDS011;40241;52.684;9.758;2023-02-22T13:53:26;5.90;;;4.67;;
5650;SDS011;40241;52.684;9.758;2023-02-22T13:55:57;6.60;;;4.97;;
5650;SDS011;40241;52.684;9.758;2023-02-22T13:58:24;6.30;;;4.93;;
5650;SDS011;40241;52.684;9.758;2023-02-22T14:00:52;8.30;;;5.13;;
5650;SDS011;40241;52.684;9.758;2023-02-22T14:03:33;7.60;;;6.20;;
5650;SDS011;40241;52.684;9.758;2023-02-22T14:06:05;8.33;;;5.00;;
5650;SDS011;40241;52.684;9.758;2023-02-22T14:10:58;6.07;;;4.93;;
5650;SDS011;40241;52.684;9.758;2023-02-22T14:13:27;6.70;;;5.70;;
5650;SDS011;40241;52.684;9.758;2023-02-22T14:18:41;6.50;;;4.50;;
5650;SDS011;40241;52.684;9.758;2023-02-22T14:21:12;5.10;;;4.40;;
5650;SDS011;40241;52.684;9.758;2023-02-22T14:24:05;5.50;;;4.30;;
5650;SDS011;40241;52.684;9.758;2023-02-22T14:26:34;6.27;;;5.23;;
5650;SDS011;40241;52.684;9.758;2023-02-22T14:29:13;7.73;;;4.80;;
5650;SDS011;40241;52.684;9.758;2023-02-22T14:39:28;6.57;;;5.40;;
5650;SDS011;40241;52.684;9.758;2023-02-22T14:42:00;5.10;;;4.50;;
5650;SDS011;40241;52.684;9.758;2023-02-22T14:44:35;7.50;;;4.70;;
5650;SDS011;40241;52.684;9.758;2023-02-22T14:47:13;7.33;;;5.23;;
5650;SDS011;40241;52.684;9.758;2023-02-22T14:49:44;7.57;;;4.53;;
5650;SDS011;40241;52.684;9.758;2023-02-22T14:52:23;6.57;;;4.13;;
5650;SDS011;40241;52.684;9.758;2023-02-22T14:57:31;4.73;;;4.20;;
5650;SDS011;40241;52.684;9.758;2023-02-22T15:02:47;6.10;;;4.50;;
5650;SDS011;40241;52.684;9.758;2023-02-22T15:05:17;4.10;;;3.70;;
5650;SDS011;40241;52.684;9.758;2023-02-22T15:07:52;7.93;;;3.77;;
5650;SDS011;40241;52.684;9.758;2023-02-22T15:10:29;5.13;;;3.60;;
5650;SDS011;40241;52.684;9.758;2023-02-22T15:13:03;5.33;;;3.10;;
5650;SDS011;40241;52.684;9.758;2023-02-22T15:15:34;3.80;;;3.50;;
5650;SDS011;40241;52.684;9.758;2023-02-22T15:18:01;4.43;;;3.43;;
5650;SDS011;40241;52.684;9.758;2023-02-22T15:20:30;4.10;;;3.03;;
5650;SDS011;40241;52.684;9.758;2023-02-22T15:22:59;5.20;;;3.00;;
5650;SDS011;40241;52.684;9.758;2023-02-22T15:25:25;4.00;;;2.93;;
5650;SDS011;40241;52.684;9.758;2023-02-22T15:27:58;5.27;;;3.07;;
5650;SDS011;40241;52.684;9.758;2023-02-22T15:30:27;3.50;;;2.87;;
5650;SDS011;40241;52.684;9.758;2023-02-22T15:32:54;2.90;;;2.30;;
5650;SDS011;40241;52.684;9.758;2023-02-22T15:35:26;5.43;;;2.57;;
5650;SDS011;40241;52.684;9.758;2023-02-22T15:40:25;2.63;;;2.20;;
5650;SDS011;40241;52.684;9.758;2023-02-22T15:42:57;3.10;;;2.67;;
5650;SDS011;40241;52.684;9.758;2023-02-22T15:45:26;3.20;;;2.50;;
5650;SDS011;40241;52.684;9.758;2023-02-22T15:47:53;3.97;;;3.10;;
5650;SDS011;40241;52.684;9.758;2023-02-22T15:50:23;3.10;;;2.80;;
5650;SDS011;40241;52.684;9.758;2023-02-22T15:53:00;4.50;;;3.53;;
5650;SDS011;40241;52.684;9.758;2023-02-22T15:55:32;4.90;;;3.10;;
5650;SDS011;40241;52.684;9.758;2023-02-22T15:58:01;3.70;;;3.20;;
5650;SDS011;40241;52.684;9.758;2023-02-22T16:00:36;3.40;;;2.80;;
5650;SDS011;40241;52.684;9.758;2023-02-22T16:03:06;3.23;;;2.63;;
5650;SDS011;40241;52.684;9.758;2023-02-22T16:08:17;4.53;;;2.83;;
5650;SDS011;40241;52.684;9.758;2023-02-22T16:10:49;3.30;;;3.00;;
5650;SDS011;40241;52.684;9.758;2023-02-22T16:13:26;2.83;;;2.40;;
5650;SDS011;40241;52.684;9.758;2023-02-22T16:15:55;4.20;;;2.70;;
5650;SDS011;40241;52.684;9.758;2023-02-22T16:18:30;2.93;;;2.73;;
5650;SDS011;40241;52.684;9.758;2023-02-22T16:23:39;2.10;;;1.90;;
5650;SDS011;40241;52.684;9.758;2023-02-22T16:26:17;2.77;;;2.10;;
5650;SDS011;40241;52.684;9.758;2023-02-22T16:28:46;3.00;;;2.20;;
5650;SDS011;40241;52.684;9.758;2023-02-22T16:31:21;2.60;;;2.40;;
5650;SDS011;40241;52.684;9.758;2023-02-22T16:33:52;4.47;;;2.90;;
5650;SDS011;40241;52.684;9.758;2023-02-22T16:36:19;3.90;;;2.70;;
5650;SDS011;40241;52.684;9.758;2023-02-22T16:39:00;6.10;;;2.90;;
5650;SDS011;40241;52.684;9.758;2023-02-22T16:41:25;2.80;;;2.47;;
5650;SDS011;40241;52.684;9.758;2023-02-22T16:43:52;3.70;;;2.50;;
5650;SDS011;40241;52.684;9.758;2023-02-22T16:46:18;4.20;;;2.37;;
5650;SDS011;40241;52.684;9.758;2023-02-22T16:48:43;3.73;;;2.83;;
5650;SDS011;40241;52.684;9.758;2023-02-22T16:51:17;3.40;;;2.73;;
5650;SDS011;40241;52.684;9.758;2023-02-22T16:53:43;2.57;;;2.37;;
5650;SDS011;40241;52.684;9.758;2023-02-22T16:56:10;2.50;;;2.30;;
5650;SDS011;40241;52.684;9.758;2023-02-22T16:58:39;3.00;;;2.33;;
5650;SDS011;40241;52.684;9.758;2023-02-22T17:01:06;2.40;;;2.20;;
5650;SDS011;40241;52.684;9.758;2023-02-22T17:03:32;3.13;;;2.37;;
5650;SDS011;40241;52.684;9.758;2023-02-22T17:05:57;5.83;;;2.57;;
5650;SDS011;40241;52.684;9.758;2023-02-22T17:08:23;3.27;;;2.97;;
5650;SDS011;40241;52.684;9.758;2023-02-22T17:10:49;4.80;;;3.10;;
5650;SDS011;40241;52.684;9.758;2023-02-22T17:13:21;4.37;;;3.00;;
5650;SDS011;40241;52.684;9.758;2023-02-22T17:15:48;5.07;;;3.10;;
5650;SDS011;40241;52.684;9.758;2023-02-22T17:18:14;3.03;;;2.47;;
5650;SDS011;40241;52.684;9.758;2023-02-22T17:20:46;4.57;;;2.60;;
5650;SDS011;40241;52.684;9.758;2023-02-22T17:23:15;4.63;;;2.87;;
5650;SDS011;40241;52.684;9.758;2023-02-22T17:25:42;4.27;;;3.17;;
5650;SDS011;40241;52.684;9.758;2023-02-22T17:28:09;3.50;;;2.47;;
5650;SDS011;40241;52.684;9.758;2023-02-22T17:30:35;3.60;;;2.67;;
5650;SDS011;40241;52.684;9.758;2023-02-22T17:33:03;3.17;;;2.47;;
5650;SDS011;40241;52.684;9.758;2023-02-22T17:35:31;3.10;;;2.80;;
5650;SDS011;40241;52.684;9.758;2023-02-22T17:37:59;6.07;;;3.27;;
5650;SDS011;40241;52.684;9.758;2023-02-22T17:40:28;4.93;;;3.33;;